createdAt,value
2018-07-26T00:00:59.013Z,98896.44
2018-07-26T00:03:27.471Z,98904.98
2018-07-26T00:05:56.743Z,98899.02
2018-07-26T00:08:25.604Z,98901.53
2018-07-26T00:10:54.247Z,98902.58
2018-07-26T00:13:22.773Z,98907.57
2018-07-26T00:15:51.241Z,98900.30
2018-07-26T00:18:19.709Z,98901.22
2018-07-26T00:20:48.187Z,98901.59
2018-07-26T00:23:16.678Z,98897.55
2018-07-26T00:25:45.113Z,98898.91
2018-07-26T00:28:13.620Z,98901.91
2018-07-26T00:30:42.099Z,98893.50
2018-07-26T00:33:10.568Z,98900.95
2018-07-26T00:35:39.215Z,98905.84
2018-07-26T00:38:07.897Z,98904.69
2018-07-26T00:40:36.496Z,98904.39
2018-07-26T00:43:05.333Z,98903.64
2018-07-26T00:45:33.807Z,98903.64
2018-07-26T00:48:02.248Z,98902.16
2018-07-26T00:50:30.692Z,98901.20
2018-07-26T00:52:59.125Z,98898.42
2018-07-26T00:55:27.630Z,98900.52
2018-07-26T00:57:56.201Z,98897.72
2018-07-26T01:00:24.842Z,98901.41
2018-07-26T01:02:53.287Z,98898.56
2018-07-26T01:05:21.766Z,98892.92
2018-07-26T01:07:50.304Z,98895.94
2018-07-26T01:10:19.858Z,98893.05
2018-07-26T01:12:48.307Z,98894.50
2018-07-26T01:15:16.886Z,98905.81
2018-07-26T01:17:45.288Z,98901.41
2018-07-26T01:20:14.048Z,98898.77
2018-07-26T01:22:42.615Z,98891.92
2018-07-26T01:25:11.166Z,98899.30
2018-07-26T01:27:39.611Z,98901.66
2018-07-26T01:30:08.035Z,98893.94
2018-07-26T01:32:36.499Z,98893.56
2018-07-26T01:35:04.998Z,98891.48
2018-07-26T01:37:33.418Z,98890.03
2018-07-26T01:40:02.263Z,98853.58
2018-07-26T01:42:35.789Z,98887.45
2018-07-26T01:45:04.610Z,98886.25
2018-07-26T01:47:34.361Z,98887.52
2018-07-26T01:50:03.955Z,98888.75
2018-07-26T01:52:32.388Z,98888.87
2018-07-26T01:55:00.897Z,98886.56
2018-07-26T01:57:29.318Z,98887.09
2018-07-26T01:59:57.803Z,98889.98
2018-07-26T02:02:26.852Z,98891.48
2018-07-26T02:04:55.305Z,98894.81
2018-07-26T02:07:23.750Z,98884.97
2018-07-26T02:09:52.210Z,98885.66
2018-07-26T02:12:20.647Z,98890.11
2018-07-26T02:14:49.104Z,98891.65
2018-07-26T02:17:19.017Z,98891.28
2018-07-26T02:19:47.507Z,98887.23
2018-07-26T02:22:16.036Z,98885.52
2018-07-26T02:24:44.470Z,98881.55
2018-07-26T02:27:12.955Z,98878.02
2018-07-26T02:29:41.428Z,98882.28
2018-07-26T02:32:10.062Z,98884.92
2018-07-26T02:34:38.499Z,98888.23
2018-07-26T02:37:07.024Z,98890.19
2018-07-26T02:39:35.469Z,98886.75
2018-07-26T02:42:03.985Z,98896.23
2018-07-26T02:44:32.396Z,98894.89
2018-07-26T02:47:00.951Z,98899.92
2018-07-26T02:49:29.422Z,98896.48
2018-07-26T02:51:57.867Z,98900.77
2018-07-26T02:54:26.334Z,98898.33
2018-07-26T02:56:54.876Z,98896.60
2018-07-26T02:59:23.276Z,98896.41
2018-07-26T03:01:51.719Z,98903.94
2018-07-26T03:04:20.301Z,98903.37
2018-07-26T03:06:48.711Z,98894.91
2018-07-26T03:09:17.696Z,98899.41
2018-07-26T03:11:46.500Z,98900.22
2018-07-26T03:14:15.068Z,98896.36
2018-07-26T03:16:43.661Z,98901.55
2018-07-26T03:19:12.230Z,98904.63
2018-07-26T03:21:40.717Z,98904.80
2018-07-26T03:24:09.121Z,98909.77
2018-07-26T03:26:37.593Z,98908.30
2018-07-26T03:29:06.914Z,98898.80
2018-07-26T03:31:35.602Z,98913.95
2018-07-26T03:34:04.498Z,98908.23
2018-07-26T03:36:33.399Z,98911.89
2018-07-26T03:39:01.960Z,98912.16
2018-07-26T03:41:30.568Z,98904.20
2018-07-26T03:43:59.557Z,98905.52
2018-07-26T03:46:28.067Z,98903.71
2018-07-26T03:48:56.638Z,98907.48
2018-07-26T03:51:25.398Z,98906.53
2018-07-26T03:53:54.216Z,98913.67
2018-07-26T03:56:22.838Z,98919.36
2018-07-26T03:58:51.626Z,98918.14
2018-07-26T04:01:20.259Z,98920.83
2018-07-26T04:03:48.952Z,98917.77
2018-07-26T04:06:17.774Z,98922.47
2018-07-26T04:08:46.917Z,98927.42
2018-07-26T04:11:15.618Z,98927.91
2018-07-26T04:13:44.313Z,98923.19
2018-07-26T04:16:12.983Z,98931.36
2018-07-26T04:18:42.303Z,98922.94
2018-07-26T04:21:13.129Z,98926.29
2018-07-26T04:23:42.063Z,98927.70
2018-07-26T04:26:11.405Z,98932.81
2018-07-26T04:28:40.115Z,98922.95
2018-07-26T04:31:09.741Z,98925.16
2018-07-26T04:33:38.315Z,98923.50
2018-07-26T04:36:06.936Z,98927.07
2018-07-26T04:38:35.415Z,98925.97
2018-07-26T04:41:04.555Z,98925.62
2018-07-26T04:43:33.179Z,98930.77
2018-07-26T04:46:01.740Z,98936.27
2018-07-26T04:48:30.415Z,98938.14
2018-07-26T04:50:59.177Z,98935.53
2018-07-26T04:53:27.784Z,98933.06
2018-07-26T04:55:56.893Z,98941.41
2018-07-26T04:58:25.857Z,98937.04
2018-07-26T05:00:55.012Z,98941.97
2018-07-26T05:03:23.545Z,98935.30
2018-07-26T05:05:52.055Z,98940.89
2018-07-26T05:08:20.617Z,98945.61
2018-07-26T05:10:49.399Z,98944.53
2018-07-26T05:13:18.226Z,98947.67
2018-07-26T05:15:46.855Z,98941.94
2018-07-26T05:18:15.303Z,98946.20
2018-07-26T05:20:43.786Z,98945.06
2018-07-26T05:23:12.410Z,98938.69
2018-07-26T05:25:40.992Z,98946.00
2018-07-26T05:28:09.776Z,98943.89
2018-07-26T05:30:38.393Z,98944.53
2018-07-26T05:33:06.989Z,98945.45
2018-07-26T05:35:35.476Z,98947.34
2018-07-26T05:38:03.957Z,98950.33
2018-07-26T05:40:32.442Z,98949.23
2018-07-26T05:43:00.935Z,98952.53
2018-07-26T05:45:30.061Z,98949.98
2018-07-26T05:47:58.620Z,98955.73
2018-07-26T05:50:27.127Z,98952.50
2018-07-26T05:52:55.596Z,98950.41
2018-07-26T05:55:25.024Z,98953.50
2018-07-26T05:57:53.733Z,98950.52
2018-07-26T06:00:22.407Z,98949.22
2018-07-26T06:02:51.194Z,98955.31
2018-07-26T06:05:19.687Z,98950.68
2018-07-26T06:07:48.296Z,98946.72
2018-07-26T06:10:16.852Z,98955.75
2018-07-26T06:12:45.400Z,98955.78
2018-07-26T06:15:13.991Z,98957.05
2018-07-26T06:17:42.648Z,98960.17
2018-07-26T06:20:12.453Z,98954.07
2018-07-26T06:22:41.995Z,98957.88
2018-07-26T06:25:10.742Z,98955.91
2018-07-26T06:27:39.793Z,98950.97
2018-07-26T06:30:11.201Z,98951.66
2018-07-26T06:32:39.743Z,98958.81
2018-07-26T06:35:09.372Z,98954.95
2018-07-26T06:37:38.061Z,98954.27
2018-07-26T06:40:06.819Z,98953.52
2018-07-26T06:42:35.407Z,98849.87
2018-07-26T06:45:03.967Z,98955.53
2018-07-26T06:47:32.557Z,98956.14
2018-07-26T06:50:01.159Z,98946.66
2018-07-26T06:52:29.771Z,98955.02
2018-07-26T06:54:58.367Z,98960.15
2018-07-26T06:57:27.182Z,98958.65
2018-07-26T06:59:56.228Z,98958.53
2018-07-26T07:02:24.752Z,98955.61
2018-07-26T07:04:54.162Z,98956.17
2018-07-26T07:07:22.847Z,98955.99
2018-07-26T07:09:51.953Z,98956.52
2018-07-26T07:12:20.476Z,98952.75
2018-07-26T07:14:49.214Z,98948.78
2018-07-26T07:17:17.838Z,98953.88
2018-07-26T07:19:46.531Z,98949.27
2018-07-26T07:22:15.056Z,98958.23
2018-07-26T07:24:43.703Z,98951.48
2018-07-26T07:27:12.352Z,98956.63
2018-07-26T07:29:40.814Z,98947.06
2018-07-26T07:32:09.364Z,98947.77
2018-07-26T07:34:37.892Z,98947.41
2018-07-26T07:37:06.484Z,98949.00
2018-07-26T07:39:34.958Z,98946.98
2018-07-26T07:42:03.408Z,98951.48
2018-07-26T07:44:33.130Z,98951.12
2018-07-26T07:47:03.436Z,98944.81
2018-07-26T07:49:32.822Z,98947.26
2018-07-26T07:52:02.301Z,98942.04
2018-07-26T07:54:32.200Z,98943.13
2018-07-26T07:57:01.159Z,98942.05
2018-07-26T07:59:31.086Z,98935.17
2018-07-26T08:01:59.788Z,98937.22
2018-07-26T08:04:29.874Z,98935.28
2018-07-26T08:06:58.891Z,98942.96
2018-07-26T08:09:27.649Z,98933.00
2018-07-26T08:11:56.139Z,98938.40
2018-07-26T08:14:25.300Z,98933.55
2018-07-26T08:16:53.808Z,98941.80
2018-07-26T08:19:22.453Z,98935.59
2018-07-26T08:21:51.095Z,98926.75
2018-07-26T08:24:22.243Z,98930.32
2018-07-26T08:26:51.875Z,98930.76
2018-07-26T08:29:21.063Z,98928.55
2018-07-26T08:31:49.649Z,98928.58
2018-07-26T08:34:18.460Z,98926.21
2018-07-26T08:36:47.109Z,98925.13
2018-07-26T08:39:15.675Z,98928.19
2018-07-26T08:41:44.479Z,98930.36
2018-07-26T08:44:13.164Z,98920.57
2018-07-26T08:46:41.760Z,98926.60
2018-07-26T08:49:10.312Z,98922.13
2018-07-26T08:51:38.814Z,98921.77
2018-07-26T08:54:08.172Z,98927.75
2018-07-26T08:56:36.846Z,98926.68
2018-07-26T08:59:05.379Z,98921.44
2018-07-26T09:01:33.941Z,98920.55
2018-07-26T09:04:02.708Z,98927.59
2018-07-26T09:06:31.178Z,98923.31
2018-07-26T09:08:59.648Z,98916.77
2018-07-26T09:11:28.367Z,98913.28
2018-07-26T09:13:56.842Z,98927.83
2018-07-26T09:16:25.292Z,98923.12
2018-07-26T09:18:54.035Z,98918.78
2018-07-26T09:21:22.520Z,98923.95
2018-07-26T09:23:51.710Z,98918.47
2018-07-26T09:26:20.347Z,98917.63
2018-07-26T09:28:49.079Z,98914.55
2018-07-26T09:31:17.671Z,98918.06
2018-07-26T09:33:46.944Z,98916.03
2018-07-26T09:36:16.392Z,98909.09
2018-07-26T09:38:44.850Z,98901.23
2018-07-26T09:41:14.448Z,98899.54
2018-07-26T09:43:43.808Z,98892.95
2018-07-26T09:46:12.262Z,98899.36
2018-07-26T09:48:42.088Z,98899.45
2018-07-26T09:51:10.543Z,98900.18
2018-07-26T09:53:39.020Z,98889.07
2018-07-26T09:56:08.066Z,98887.34
2018-07-26T09:58:36.478Z,98893.08
2018-07-26T10:01:10.337Z,98890.33
2018-07-26T10:03:38.844Z,98880.67
2018-07-26T10:06:07.283Z,98895.21
2018-07-26T10:08:35.970Z,98884.45
2018-07-26T10:11:04.560Z,98878.34
2018-07-26T10:13:32.976Z,98878.28
2018-07-26T10:16:01.418Z,98877.23
2018-07-26T10:18:29.859Z,98878.58
2018-07-26T10:20:58.587Z,98876.02
2018-07-26T10:23:27.037Z,98877.48
2018-07-26T10:25:56.262Z,98878.21
2018-07-26T10:28:24.909Z,98879.84
2018-07-26T10:30:53.380Z,98878.20
2018-07-26T10:33:22.018Z,98870.41
2018-07-26T10:35:50.515Z,98870.92
2018-07-26T10:38:19.071Z,98870.59
2018-07-26T10:40:47.619Z,98870.59
2018-07-26T10:43:16.204Z,98863.34
2018-07-26T10:45:44.826Z,98866.77
2018-07-26T10:48:13.306Z,98865.78
2018-07-26T10:50:41.871Z,98861.70
2018-07-26T10:53:10.585Z,98857.79
2018-07-26T10:55:39.160Z,98866.80
2018-07-26T10:58:08.378Z,98864.71
2018-07-26T11:00:36.873Z,98858.50
2018-07-26T11:03:06.010Z,98850.80
2018-07-26T11:05:34.572Z,98858.20
2018-07-26T11:08:03.043Z,98856.06
2018-07-26T11:10:31.554Z,98854.54
2018-07-26T11:13:00.054Z,98856.94
2018-07-26T11:15:30.166Z,98851.38
2018-07-26T11:17:59.039Z,98844.36
2018-07-26T11:20:27.548Z,98844.44
2018-07-26T11:22:56.023Z,98839.89
2018-07-26T11:25:24.526Z,98852.13
2018-07-26T11:27:53.691Z,98841.23
2018-07-26T11:30:22.369Z,98855.52
2018-07-26T11:32:50.830Z,98844.73
2018-07-26T11:35:19.318Z,98835.63
2018-07-26T11:37:47.973Z,98830.25
2018-07-26T11:40:16.975Z,98837.59
2018-07-26T11:42:45.520Z,98830.71
2018-07-26T11:45:14.099Z,98835.08
2018-07-26T11:47:42.570Z,98826.38
2018-07-26T11:50:13.147Z,98830.45
2018-07-26T11:52:41.700Z,98822.81
2018-07-26T11:55:10.168Z,98811.09
2018-07-26T11:57:38.612Z,98828.81
2018-07-26T12:00:08.528Z,98816.59
2018-07-26T12:02:37.109Z,98820.63
2018-07-26T12:05:05.708Z,98819.69
2018-07-26T12:07:34.273Z,98816.73
2018-07-26T12:10:02.694Z,98812.94
2018-07-26T12:12:31.132Z,98801.75
2018-07-26T12:14:59.628Z,98810.08
2018-07-26T12:17:28.096Z,98798.34
2018-07-26T12:19:57.835Z,98804.88
2018-07-26T12:22:26.303Z,98804.22
2018-07-26T12:24:54.929Z,98803.08
2018-07-26T12:27:23.335Z,98803.02
2018-07-26T12:29:51.767Z,98800.52
2018-07-26T12:32:20.185Z,98790.39
2018-07-26T12:34:48.608Z,98790.72
2018-07-26T12:37:17.000Z,98788.51
2018-07-26T12:39:46.604Z,98790.41
2018-07-26T12:42:15.767Z,98789.27
2018-07-26T12:44:44.204Z,98785.45
2018-07-26T12:47:12.876Z,98785.97
2018-07-26T12:49:41.351Z,98779.75
2018-07-26T12:52:10.812Z,98780.84
2018-07-26T12:54:40.439Z,98776.45
2018-07-26T12:57:08.847Z,98778.83
2018-07-26T12:59:37.277Z,98773.46
2018-07-26T13:02:05.908Z,98772.56
2018-07-26T13:04:34.404Z,98760.34
2018-07-26T13:07:02.886Z,98771.47
2018-07-26T13:09:31.271Z,98767.73
2018-07-26T13:11:59.841Z,98763.67
2018-07-26T13:14:28.250Z,98765.81
2018-07-26T13:16:56.751Z,98767.28
2018-07-26T13:19:25.209Z,98761.95
2018-07-26T13:21:54.663Z,98757.11
2018-07-26T13:24:23.197Z,98758.78
2018-07-26T13:26:51.778Z,98753.43
2018-07-26T13:29:20.593Z,98753.66
2018-07-26T13:31:49.102Z,98755.02
2018-07-26T13:34:17.617Z,98750.35
2018-07-26T13:36:46.115Z,98756.63
2018-07-26T13:39:14.922Z,98756.76
2018-07-26T13:41:43.491Z,98751.30
2018-07-26T13:44:11.975Z,98745.98
2018-07-26T13:46:40.436Z,98735.55
2018-07-26T13:49:08.886Z,98733.80
2018-07-26T13:51:37.388Z,98738.52
2018-07-26T13:54:06.429Z,98742.45
2018-07-26T13:56:35.022Z,98739.55
2018-07-26T13:59:04.416Z,98732.93
2018-07-26T14:01:33.137Z,98732.66
2018-07-26T14:04:01.771Z,98731.86
2018-07-26T14:06:30.431Z,98738.05
2018-07-26T14:08:58.898Z,98728.76
2018-07-26T14:11:27.513Z,98730.87
2018-07-26T14:13:56.018Z,98733.73
2018-07-26T14:16:25.301Z,98721.95
2018-07-26T14:18:54.207Z,98719.91
2018-07-26T14:21:22.723Z,98723.52
2018-07-26T14:23:56.508Z,98722.41
2018-07-26T14:26:24.997Z,98705.13
2018-07-26T14:28:54.071Z,98714.46
2018-07-26T14:31:22.690Z,98714.22
2018-07-26T14:33:51.136Z,98708.56
2018-07-26T14:36:19.597Z,98708.45
2018-07-26T14:38:48.143Z,98592.45
2018-07-26T14:41:16.664Z,98697.53
2018-07-26T14:43:45.148Z,98697.30
2018-07-26T14:46:13.557Z,98696.58
2018-07-26T14:48:41.990Z,98698.31
2018-07-26T14:51:10.501Z,98698.98
2018-07-26T14:53:38.952Z,98696.56
2018-07-26T14:56:07.573Z,98691.81
2018-07-26T14:58:37.142Z,98692.75
2018-07-26T15:01:06.273Z,98686.48
2018-07-26T15:03:34.932Z,98685.86
2018-07-26T15:06:03.697Z,98691.07
2018-07-26T15:08:33.051Z,98689.66
2018-07-26T15:11:01.505Z,98692.64
2018-07-26T15:13:30.160Z,98694.80
2018-07-26T15:15:58.984Z,98690.79
2018-07-26T15:18:27.500Z,98685.27
2018-07-26T15:20:55.942Z,98679.79
2018-07-26T15:23:24.387Z,98683.33
2018-07-26T15:25:53.380Z,98680.46
2018-07-26T15:28:21.780Z,98678.56
2018-07-26T15:30:50.212Z,98673.73
2018-07-26T15:33:18.624Z,98681.22
2018-07-26T15:35:47.066Z,98680.48
2018-07-26T15:38:15.502Z,98685.86
2018-07-26T15:40:43.919Z,98685.42
2018-07-26T15:43:12.366Z,98681.89
2018-07-26T15:45:40.795Z,98685.05
2018-07-26T15:48:09.237Z,98682.94
2018-07-26T15:50:37.633Z,98681.06
2018-07-26T15:53:06.602Z,98687.11
2018-07-26T15:55:35.073Z,98674.73
2018-07-26T15:58:03.484Z,98675.53
2018-07-26T16:00:31.885Z,98672.33
2018-07-26T16:03:00.425Z,98661.63
2018-07-26T16:05:28.844Z,98672.68
2018-07-26T16:07:57.563Z,98664.39
2018-07-26T16:10:26.917Z,98664.44
2018-07-26T16:12:55.347Z,98662.10
2018-07-26T16:15:23.774Z,98666.33
2018-07-26T16:17:52.314Z,98665.50
2018-07-26T16:20:20.660Z,98668.55
2018-07-26T16:22:49.151Z,98662.41
2018-07-26T16:25:17.644Z,98658.31
2018-07-26T16:27:46.073Z,98658.90
2018-07-26T16:30:14.511Z,98655.39
2018-07-26T16:32:42.951Z,98661.33
2018-07-26T16:35:11.384Z,98658.85
2018-07-26T16:37:39.831Z,98659.79
2018-07-26T16:40:08.311Z,98647.03
2018-07-26T16:42:36.755Z,98652.25
2018-07-26T16:45:06.377Z,98652.93
2018-07-26T16:47:34.860Z,98639.27
2018-07-26T16:50:03.763Z,98649.24
2018-07-26T16:52:32.260Z,98649.80
2018-07-26T16:55:00.792Z,98641.78
2018-07-26T16:57:29.358Z,98645.99
2018-07-26T16:59:57.791Z,98648.75
2018-07-26T17:02:27.117Z,98643.98
2018-07-26T17:04:55.575Z,98650.88
2018-07-26T17:07:24.127Z,98648.59
2018-07-26T17:09:52.547Z,98648.88
2018-07-26T17:12:21.022Z,98635.80
2018-07-26T17:14:49.433Z,98643.37
2018-07-26T17:17:17.896Z,98647.79
2018-07-26T17:19:46.311Z,98648.38
2018-07-26T17:22:14.758Z,98648.73
2018-07-26T17:24:43.289Z,98648.95
2018-07-26T17:27:11.708Z,98653.67
2018-07-26T17:29:40.147Z,98652.55
2018-07-26T17:32:08.660Z,98653.23
2018-07-26T17:34:37.221Z,98648.96
2018-07-26T17:37:05.799Z,98651.47
2018-07-26T17:39:34.265Z,98650.16
2018-07-26T17:42:04.128Z,98652.11
2018-07-26T17:44:33.330Z,98653.64
2018-07-26T17:47:01.844Z,98657.77
2018-07-26T17:49:31.137Z,98659.39
2018-07-26T17:52:04.267Z,98655.61
2018-07-26T17:54:32.927Z,98656.41
2018-07-26T17:57:01.428Z,98657.03
2018-07-26T17:59:31.134Z,98663.00
2018-07-26T18:02:00.725Z,98668.02
2018-07-26T18:04:30.029Z,98668.34
2018-07-26T18:06:59.739Z,98666.19
2018-07-26T18:09:28.216Z,98666.95
2018-07-26T18:11:57.073Z,98664.38
2018-07-26T18:14:25.664Z,98669.13
2018-07-26T18:16:54.282Z,98662.03
2018-07-26T18:19:23.155Z,98665.43
2018-07-26T18:21:51.968Z,98661.97
2018-07-26T18:24:20.891Z,98663.30
2018-07-26T18:26:50.106Z,98672.97
2018-07-26T18:29:19.792Z,98669.80
2018-07-26T18:31:48.778Z,98668.53
2018-07-26T18:34:17.780Z,98670.77
2018-07-26T18:36:46.677Z,98676.84
2018-07-26T18:39:15.744Z,98683.16
2018-07-26T18:41:44.473Z,98684.77
2018-07-26T18:44:25.281Z,98688.55
2018-07-26T18:46:54.427Z,98689.94
2018-07-26T18:49:24.575Z,98694.30
2018-07-26T18:51:53.749Z,98693.47
2018-07-26T18:54:22.480Z,98702.19
2018-07-26T18:56:52.331Z,98708.47
2018-07-26T18:59:22.236Z,98702.19
2018-07-26T19:01:50.933Z,98712.67
2018-07-26T19:04:19.667Z,98713.13
2018-07-26T19:06:48.775Z,98705.94
2018-07-26T19:09:17.463Z,98704.42
2018-07-26T19:11:46.209Z,98704.83
2018-07-26T19:14:14.978Z,98706.48
2018-07-26T19:16:44.203Z,98714.02
2018-07-26T19:19:12.997Z,98718.39
2018-07-26T19:21:42.373Z,98724.22
2018-07-26T19:24:10.950Z,98727.20
2018-07-26T19:26:39.547Z,98728.24
2018-07-26T19:29:08.147Z,98728.05
2018-07-26T19:31:37.457Z,98732.17
2018-07-26T19:34:06.980Z,98734.38
2018-07-26T19:36:35.576Z,98734.57
2018-07-26T19:39:07.283Z,98734.44
2018-07-26T19:41:36.066Z,98743.11
2018-07-26T19:44:05.070Z,98743.91
2018-07-26T19:46:34.028Z,98626.43
2018-07-26T19:49:03.313Z,98751.48
2018-07-26T19:51:32.689Z,98757.98
2018-07-26T19:54:01.984Z,98756.94
2018-07-26T19:56:30.411Z,98757.84
2018-07-26T19:58:59.263Z,98765.30
2018-07-26T20:01:27.688Z,98764.82
2018-07-26T20:03:56.345Z,98765.70
2018-07-26T20:06:24.873Z,98775.67
2018-07-26T20:08:53.681Z,98774.49
2018-07-26T20:11:22.848Z,98779.58
2018-07-26T20:13:51.387Z,98777.73
2018-07-26T20:16:19.790Z,98787.23
2018-07-26T20:18:48.408Z,98784.44
2018-07-26T20:21:17.165Z,98785.20
2018-07-26T20:23:47.307Z,98779.61
2018-07-26T20:26:16.069Z,98778.84
2018-07-26T20:28:44.670Z,98779.18
2018-07-26T20:31:13.102Z,98787.48
2018-07-26T20:33:41.639Z,98790.00
2018-07-26T20:36:10.243Z,98789.72
2018-07-26T20:38:39.213Z,98787.67
2018-07-26T20:41:07.764Z,98797.53
2018-07-26T20:43:36.189Z,98794.19
2018-07-26T20:46:04.818Z,98796.34
2018-07-26T20:48:33.422Z,98799.78
2018-07-26T20:51:01.848Z,98802.51
2018-07-26T20:53:30.523Z,98803.80
2018-07-26T20:55:59.255Z,98804.36
2018-07-26T20:58:28.446Z,98805.31
2018-07-26T21:00:57.661Z,98810.64
2018-07-26T21:03:26.595Z,98809.12
2018-07-26T21:05:56.142Z,98814.17
2018-07-26T21:08:25.090Z,98806.19
2018-07-26T21:10:53.694Z,98807.35
2018-07-26T21:13:22.142Z,98801.76
2018-07-26T21:15:50.593Z,98806.13
2018-07-26T21:18:19.628Z,98812.63
2018-07-26T21:20:48.077Z,98811.63
2018-07-26T21:23:16.842Z,98814.76
2018-07-26T21:25:46.897Z,98812.49
2018-07-26T21:28:15.612Z,98814.39
2018-07-26T21:30:44.237Z,98822.63
2018-07-26T21:33:13.128Z,98818.33
2018-07-26T21:35:41.644Z,98826.48
2018-07-26T21:38:11.369Z,98819.06
2018-07-26T21:40:39.936Z,98816.53
2018-07-26T21:43:11.216Z,98828.35
2018-07-26T21:45:39.933Z,98825.69
2018-07-26T21:48:08.642Z,98826.06
2018-07-26T21:50:37.416Z,98831.88
2018-07-26T21:53:06.320Z,98820.97
2018-07-26T21:55:34.742Z,98823.58
2018-07-26T21:58:03.385Z,98825.96
2018-07-26T22:00:39.919Z,98825.05
2018-07-26T22:03:09.111Z,98825.52
2018-07-26T22:05:38.308Z,98826.94
2018-07-26T22:08:07.746Z,98826.95
2018-07-26T22:10:36.173Z,98829.87
2018-07-26T22:13:04.577Z,98830.33
2018-07-26T22:15:33.127Z,98834.63
2018-07-26T22:18:01.526Z,98840.77
2018-07-26T22:20:30.779Z,98833.92
2018-07-26T22:22:59.289Z,98834.30
2018-07-26T22:25:27.723Z,98833.63
2018-07-26T22:27:56.526Z,98836.79
2018-07-26T22:30:25.216Z,98838.31
2018-07-26T22:32:54.268Z,98832.77
2018-07-26T22:35:22.975Z,98831.17
2018-07-26T22:37:51.579Z,98843.18
2018-07-26T22:40:20.631Z,98831.80
2018-07-26T22:42:49.210Z,98836.57
2018-07-26T22:45:18.274Z,98833.02
2018-07-26T22:47:47.539Z,98832.44
2018-07-26T22:50:16.631Z,98836.53
2018-07-26T22:52:45.700Z,98831.67
2018-07-26T22:55:14.217Z,98832.56
2018-07-26T22:57:42.652Z,98837.05
2018-07-26T23:00:11.172Z,98834.87
2018-07-26T23:02:39.736Z,98833.56
2018-07-26T23:05:08.708Z,98828.19
2018-07-26T23:07:38.068Z,98836.53
2018-07-26T23:10:08.563Z,98832.59
2018-07-26T23:12:37.385Z,98833.20
2018-07-26T23:15:07.355Z,98833.97
2018-07-26T23:17:35.877Z,98827.59
2018-07-26T23:20:05.623Z,98835.64
2018-07-26T23:22:34.242Z,98848.39
2018-07-26T23:25:02.786Z,98831.28
2018-07-26T23:27:31.610Z,98831.35
2018-07-26T23:30:00.133Z,98829.16
2018-07-26T23:32:29.052Z,98834.05
2018-07-26T23:34:57.937Z,98835.81
2018-07-26T23:37:26.983Z,98831.00
2018-07-26T23:39:56.628Z,98825.10
2018-07-26T23:42:26.575Z,98825.85
2018-07-26T23:44:56.229Z,98828.39
2018-07-26T23:47:25.249Z,98827.09
2018-07-26T23:49:53.710Z,98829.54
2018-07-26T23:52:22.770Z,98828.21
2018-07-26T23:54:51.315Z,98822.22
2018-07-26T23:57:19.719Z,98822.22
2018-07-26T23:59:48.259Z,98820.94
